PDT,Max TemperatureF,Mean TemperatureF,Min TemperatureF,Max Dew PointF,MeanDew PointF,Min DewpointF,Max Humidity, Mean Humidity, Min Humidity, Max Sea Level PressureIn, Mean Sea Level PressureIn, Min Sea Level PressureIn, Max VisibilityMiles, Mean VisibilityMiles, Min VisibilityMiles, Max Wind SpeedMPH, Mean Wind SpeedMPH, Max Gust SpeedMPH,PrecipitationIn, CloudCover, Events, WindDirDegrees
2012-10-1,85,65,44,40,36,31,71,44,15,30.29,30.15,30.04,10,9,3,13,4,16,0.00,0,,339
2012-10-2,83,59,35,44,37,32,85,51,17,30.15,30.03,29.95,10,10,7,22,5,26,0.00,0,,324
2012-10-3,69,51,33,37,28,22,75,46,17,30.15,30.08,30.02,10,10,7,18,9,23,0.00,0,,340
2012-10-4,76,54,31,30,24,8,72,38,9,30.16,30.09,30.02,10,10,10,18,5,23,0.00,0,,345
2012-10-5,70,52,33,35,29,25,70,47,22,30.18,30.11,30.04,10,10,3,14,6,16,0.00,2,,353
2012-10-6,71,56,40,29,25,21,53,37,17,30.16,30.06,29.96,10,10,7,15,9,18,0.00,0,,343
2012-10-7,72,54,35,28,21,12,59,34,12,30.10,30.00,29.91,10,10,7,9,5,9,0.00,0,,347
2012-10-8,71,49,26,37,28,22,78,53,17,30.03,29.97,29.91,10,10,10,15,2,17,0.00,2,,129
2012-10-9,69,52,34,39,33,25,96,56,20,30.06,29.99,29.93,10,10,7,7,3,15,0.00,2,,344
2012-10-10,75,54,32,37,31,19,89,54,13,30.03,29.94,29.85,10,10,7,12,2,13,0.00,1,,221
2012-10-11,75,52,29,37,30,21,92,59,14,29.97,29.89,29.81,10,10,10,9,2,12,0.00,0,,166
2012-10-12,71,51,30,43,34,28,96,65,25,30.12,29.97,29.84,10,10,7,18,6,23,0.00,2,,184
2012-10-13,64,50,36,47,44,37,93,80,52,30.34,30.26,30.14,10,9,2,12,3,13,T,6,Rain,152
2012-10-14,70,51,31,45,37,30,100,87,33,30.30,30.24,30.08,10,4,0,22,3,25,T,3,Fog,7
2012-10-15,67,58,48,57,48,43,100,72,52,30.16,30.04,29.90,10,10,7,16,5,21,0.19,7,Rain,211
2012-10-16,59,47,35,58,44,32,100,75,40,30.20,30.02,29.86,10,10,7,26,9,37,0.04,4,Rain,283
2012-10-17,65,46,26,39,31,25,92,69,30,30.26,30.21,30.15,10,10,7,8,2,9,0.00,1,,332
2012-10-18,72,50,28,39,32,26,89,62,20,30.24,30.14,30.03,10,10,7,8,1,12,0.00,3,,2
2012-10-19,69,51,33,49,39,30,89,68,32,30.09,29.99,29.88,10,10,4,23,8,28,0.01,5,Rain,265
2012-10-20,53,40,27,48,35,25,93,71,44,29.96,29.89,29.85,10,10,7,20,9,24,0.00,5,,293
2012-10-21,51,35,18,30,23,19,92,67,28,29.95,29.85,29.68,10,9,2,16,5,25,0.00,2,Fog,219
2012-10-22,43,38,33,37,33,27,100,84,53,29.71,29.63,29.55,10,9,5,21,9,28,0.11,7,Rain-Snow,216
2012-10-23,44,37,29,31,28,23,100,74,41,29.93,29.86,29.73,10,9,2,17,7,21,T,7,Snow,184
2012-10-24,42,37,31,34,32,29,96,90,70,30.19,29.97,29.86,10,6,0,18,6,25,0.07,7,Snow,235
2012-10-25,46,36,26,34,30,26,100,88,49,30.40,30.30,30.19,10,6,0,8,2,10,T,6,Fog-Snow,171
2012-10-26,55,40,25,40,30,24,92,75,51,30.39,30.29,30.19,10,10,10,14,4,17,T,5,,224
2012-10-27,58,44,29,48,38,28,93,82,66,30.23,30.18,30.12,10,9,2,12,3,14,T,6,Rain,183
2012-10-28,63,48,33,48,39,33,100,93,55,30.17,30.12,30.01,10,3,0,8,1,9,0.00,5,Fog,85
2012-10-29,65,48,30,46,36,30,100,86,30,30.19,30.12,30.06,10,4,0,10,2,14,0.00,3,Fog,159
2012-10-30,67,51,34,43,36,32,92,62,29,30.10,30.00,29.87,10,10,7,23,9,29,0.00,5,,170
2012-10-31,57,48,39,46,37,30,100,68,44,29.90,29.84,29.78,10,9,5,37,14,46,0.14,5,Rain,181